sensor_id;sensor_type;location;lat;lon;timestamp;pressure;altitude;pressure_sealevel;temperature;humidity
26719;BME280;14326;50.794;6.060;2024-01-30T00:01:36;100721.38;;;10.81;93.73
26719;BME280;14326;50.794;6.060;2024-01-30T00:04:03;100710.66;;;10.78;93.93
26719;BME280;14326;50.794;6.060;2024-01-30T00:06:30;100723.06;;;10.77;94.05
26719;BME280;14326;50.794;6.060;2024-01-30T00:08:56;100720.56;;;10.85;93.47
26719;BME280;14326;50.794;6.060;2024-01-30T00:11:23;100719.56;;;10.80;93.78
26719;BME280;14326;50.794;6.060;2024-01-30T00:13:52;100718.53;;;10.75;94.08
26719;BME280;14326;50.794;6.060;2024-01-30T00:16:20;100707.09;;;10.77;93.55
26719;BME280;14326;50.794;6.060;2024-01-30T00:18:47;100706.25;;;10.80;93.36
26719;BME280;14326;50.794;6.060;2024-01-30T00:21:13;100703.53;;;10.77;93.70
26719;BME280;14326;50.794;6.060;2024-01-30T00:23:40;100710.72;;;10.81;93.27
26719;BME280;14326;50.794;6.060;2024-01-30T00:26:07;100702.72;;;10.81;93.62
26719;BME280;14326;50.794;6.060;2024-01-30T00:28:33;100706.13;;;10.75;93.65
26719;BME280;14326;50.794;6.060;2024-01-30T00:31:01;100696.34;;;10.74;93.69
26719;BME280;14326;50.794;6.060;2024-01-30T00:33:28;100696.34;;;10.74;93.69
26719;BME280;14326;50.794;6.060;2024-01-30T00:35:54;100699.91;;;10.75;93.85
26719;BME280;14326;50.794;6.060;2024-01-30T00:38:21;100690.22;;;10.77;93.59
26719;BME280;14326;50.794;6.060;2024-01-30T00:40:48;100698.22;;;10.77;93.53
26719;BME280;14326;50.794;6.060;2024-01-30T00:43:15;100698.38;;;10.83;93.23
26719;BME280;14326;50.794;6.060;2024-01-30T00:45:42;100685.97;;;10.85;93.17
26719;BME280;14326;50.794;6.060;2024-01-30T00:48:11;100691.53;;;10.94;92.45
26719;BME280;14326;50.794;6.060;2024-01-30T00:50:37;100691.53;;;10.94;92.45
26719;BME280;14326;50.794;6.060;2024-01-30T00:53:04;100686.13;;;10.89;92.86
26719;BME280;14326;50.794;6.060;2024-01-30T00:55:30;100685.28;;;10.92;92.86
26719;BME280;14326;50.794;6.060;2024-01-30T00:57:57;100687.94;;;10.92;92.71
26719;BME280;14326;50.794;6.060;2024-01-30T01:00:23;100687.97;;;10.93;92.61
26719;BME280;14326;50.794;6.060;2024-01-30T01:02:54;100684.31;;;10.88;93.12
26719;BME280;14326;50.794;6.060;2024-01-30T01:05:22;100686.97;;;10.88;93.21
26719;BME280;14326;50.794;6.060;2024-01-30T01:07:48;100686.06;;;10.88;93.01
26719;BME280;14326;50.794;6.060;2024-01-30T01:10:16;100685.16;;;10.87;93.18
26719;BME280;14326;50.794;6.060;2024-01-30T01:12:43;100685.41;;;10.98;92.25
26719;BME280;14326;50.794;6.060;2024-01-30T01:15:10;100689.78;;;10.94;92.56
26719;BME280;14326;50.794;6.060;2024-01-30T01:17:36;100691.38;;;10.88;92.88
26719;BME280;14326;50.794;6.060;2024-01-30T01:20:04;100683.44;;;10.89;92.65
26719;BME280;14326;50.794;6.060;2024-01-30T01:22:33;100675.00;;;11.07;91.80
26719;BME280;14326;50.794;6.060;2024-01-30T01:24:59;100683.09;;;11.12;91.11
26719;BME280;14326;50.794;6.060;2024-01-30T01:27:27;100670.69;;;11.12;91.22
26719;BME280;14326;50.794;6.060;2024-01-30T01:29:53;100671.50;;;11.09;91.51
26719;BME280;14326;50.794;6.060;2024-01-30T01:32:20;100677.72;;;11.10;91.26
26719;BME280;14326;50.794;6.060;2024-01-30T01:34:46;100681.19;;;11.06;91.82
26719;BME280;14326;50.794;6.060;2024-01-30T01:37:13;100673.97;;;11.02;91.97
26719;BME280;14326;50.794;6.060;2024-01-30T01:39:41;100681.91;;;10.99;92.47
26719;BME280;14326;50.794;6.060;2024-01-30T01:42:08;100679.03;;;10.91;93.02
26719;BME280;14326;50.794;6.060;2024-01-30T01:44:34;100674.66;;;10.93;93.20
26719;BME280;14326;50.794;6.060;2024-01-30T01:47:01;100684.41;;;10.93;92.88
26719;BME280;14326;50.794;6.060;2024-01-30T01:49:28;100683.84;;;11.06;92.07
26719;BME280;14326;50.794;6.060;2024-01-30T01:51:55;100677.53;;;11.01;92.63
26719;BME280;14326;50.794;6.060;2024-01-30T01:54:23;100673.97;;;11.00;92.32
26719;BME280;14326;50.794;6.060;2024-01-30T01:56:52;100673.81;;;10.96;92.57
26719;BME280;14326;50.794;6.060;2024-01-30T01:59:20;100679.69;;;10.81;93.90
26719;BME280;14326;50.794;6.060;2024-01-30T02:01:46;100679.69;;;10.81;94.09
26719;BME280;14326;50.794;6.060;2024-01-30T02:16:13;100666.34;;;10.80;94.86
26719;BME280;14326;50.794;6.060;2024-01-30T02:18:40;100669.00;;;10.80;95.20
26719;BME280;14326;50.794;6.060;2024-01-30T02:21:10;100663.72;;;10.81;95.12
26719;BME280;14326;50.794;6.060;2024-01-30T02:23:36;100663.03;;;10.90;94.68
26719;BME280;14326;50.794;6.060;2024-01-30T02:26:04;100660.50;;;10.96;94.48
26719;BME280;14326;50.794;6.060;2024-01-30T02:28:30;100668.50;;;10.96;94.34
26719;BME280;14326;50.794;6.060;2024-01-30T02:30:57;100661.59;;;11.04;94.30
26719;BME280;14326;50.794;6.060;2024-01-30T02:33:24;100658.91;;;11.02;93.89
26719;BME280;14326;50.794;6.060;2024-01-30T02:35:50;100658.16;;;11.08;93.85
26719;BME280;14326;50.794;6.060;2024-01-30T02:38:18;100652.81;;;11.06;93.59
26719;BME280;14326;50.794;6.060;2024-01-30T02:40:45;100659.00;;;11.05;93.92
26719;BME280;14326;50.794;6.060;2024-01-30T02:43:12;100657.22;;;11.06;93.89
26719;BME280;14326;50.794;6.060;2024-01-30T02:45:38;100648.00;;;11.29;92.20
26719;BME280;14326;50.794;6.060;2024-01-30T02:48:05;100648.81;;;11.27;92.34
26719;BME280;14326;50.794;6.060;2024-01-30T02:50:32;100653.34;;;11.29;92.27
26719;BME280;14326;50.794;6.060;2024-01-30T02:52:59;100645.25;;;11.26;92.13
26719;BME280;14326;50.794;6.060;2024-01-30T02:55:27;100635.50;;;11.27;92.14
26719;BME280;14326;50.794;6.060;2024-01-30T02:57:53;100633.66;;;11.23;92.34
26719;BME280;14326;50.794;6.060;2024-01-30T03:00:20;100633.66;;;11.23;92.55
26719;BME280;14326;50.794;6.060;2024-01-30T03:02:46;100638.00;;;11.19;92.78
26719;BME280;14326;50.794;6.060;2024-01-30T03:05:13;100634.31;;;11.13;92.85
26719;BME280;14326;50.794;6.060;2024-01-30T03:07:40;100624.41;;;11.07;93.50
26719;BME280;14326;50.794;6.060;2024-01-30T03:10:07;100633.28;;;11.06;93.48
26719;BME280;14326;50.794;6.060;2024-01-30T03:12:35;100638.59;;;11.06;93.99
26719;BME280;14326;50.794;6.060;2024-01-30T03:15:02;100626.94;;;11.02;93.99
26719;BME280;14326;50.794;6.060;2024-01-30T03:17:28;100634.03;;;11.02;93.90
26719;BME280;14326;50.794;6.060;2024-01-30T03:19:55;100638.44;;;11.00;94.47
26719;BME280;14326;50.794;6.060;2024-01-30T03:22:22;100640.16;;;10.98;94.93
26719;BME280;14326;50.794;6.060;2024-01-30T03:24:49;100638.56;;;11.04;94.35
26719;BME280;14326;50.794;6.060;2024-01-30T03:27:15;100628.69;;;11.00;94.89
26719;BME280;14326;50.794;6.060;2024-01-30T03:29:43;100626.03;;;11.02;94.74
26719;BME280;14326;50.794;6.060;2024-01-30T03:32:10;100626.03;;;11.00;95.00
26719;BME280;14326;50.794;6.060;2024-01-30T03:34:36;100624.41;;;11.07;94.51
26719;BME280;14326;50.794;6.060;2024-01-30T03:37:03;100627.25;;;11.15;94.27
26719;BME280;14326;50.794;6.060;2024-01-30T03:39:30;100624.84;;;11.27;93.68
26719;BME280;14326;50.794;6.060;2024-01-30T03:41:57;100626.34;;;11.14;94.09
26719;BME280;14326;50.794;6.060;2024-01-30T03:44:23;100633.28;;;11.06;94.95
26719;BME280;14326;50.794;6.060;2024-01-30T03:46:51;100630.63;;;11.07;95.08
26719;BME280;14326;50.794;6.060;2024-01-30T03:49:18;100632.50;;;11.12;94.74
26719;BME280;14326;50.794;6.060;2024-01-30T03:51:44;100628.84;;;11.06;95.39
26719;BME280;14326;50.794;6.060;2024-01-30T03:54:12;100631.53;;;11.08;95.54
26719;BME280;14326;50.794;6.060;2024-01-30T03:56:39;100629.81;;;11.10;95.52
26719;BME280;14326;50.794;6.060;2024-01-30T03:59:06;100631.56;;;11.09;95.48
26719;BME280;14326;50.794;6.060;2024-01-30T04:01:32;100620.09;;;11.12;95.33
26719;BME280;14326;50.794;6.060;2024-01-30T04:04:00;100609.50;;;11.15;95.08
26719;BME280;14326;50.794;6.060;2024-01-30T04:06:27;100621.81;;;11.10;95.67
26719;BME280;14326;50.794;6.060;2024-01-30T04:08:53;100617.28;;;11.06;96.29
26719;BME280;14326;50.794;6.060;2024-01-30T04:11:20;100618.44;;;11.17;95.49
26719;BME280;14326;50.794;6.060;2024-01-30T04:13:46;100610.31;;;11.11;96.37
26719;BME280;14326;50.794;6.060;2024-01-30T04:16:19;100615.78;;;11.17;96.15
26719;BME280;14326;50.794;6.060;2024-01-30T04:18:47;100616.69;;;11.18;96.17
26719;BME280;14326;50.794;6.060;2024-01-30T04:21:15;100616.50;;;11.10;96.92
26719;BME280;14326;50.794;6.060;2024-01-30T04:23:41;100612.06;;;11.11;96.90
26719;BME280;14326;50.794;6.060;2024-01-30T04:26:08;100616.53;;;11.12;97.18
26719;BME280;14326;50.794;6.060;2024-01-30T04:28:35;100613.78;;;11.07;97.38
26719;BME280;14326;50.794;6.060;2024-01-30T04:31:01;100610.06;;;11.00;97.83
26719;BME280;14326;50.794;6.060;2024-01-30T04:33:28;100616.59;;;11.15;97.22
26719;BME280;14326;50.794;6.060;2024-01-30T04:35:54;100619.28;;;11.16;97.44
26719;BME280;14326;50.794;6.060;2024-01-30T04:38:22;100607.66;;;11.11;97.94
26719;BME280;14326;50.794;6.060;2024-01-30T04:40:49;100608.81;;;11.25;97.67
26719;BME280;14326;50.794;6.060;2024-01-30T04:43:15;100609.53;;;11.17;98.33
26719;BME280;14326;50.794;6.060;2024-01-30T04:45:42;100608.69;;;11.19;98.83
26719;BME280;14326;50.794;6.060;2024-01-30T04:48:09;100606.78;;;11.14;98.44
26719;BME280;14326;50.794;6.060;2024-01-30T04:50:35;100609.31;;;11.07;99.28
26719;BME280;14326;50.794;6.060;2024-01-30T04:53:02;100615.63;;;11.11;99.09
26719;BME280;14326;50.794;6.060;2024-01-30T04:55:30;100610.22;;;11.08;99.36
26719;BME280;14326;50.794;6.060;2024-01-30T04:57:57;100614.03;;;11.19;99.01
26719;BME280;14326;50.794;6.060;2024-01-30T05:00:23;100615.16;;;11.29;98.44
26719;BME280;14326;50.794;6.060;2024-01-30T05:02:50;100609.88;;;11.32;98.38
26719;BME280;14326;50.794;6.060;2024-01-30T05:05:16;100620.44;;;11.27;98.83
26719;BME280;14326;50.794;6.060;2024-01-30T05:07:43;100620.44;;;11.27;98.83
26719;BME280;14326;50.794;6.060;2024-01-30T05:10:09;100620.44;;;11.27;98.83
26719;BME280;14326;50.794;6.060;2024-01-30T05:12:38;100620.44;;;11.27;98.83
26719;BME280;14326;50.794;6.060;2024-01-30T05:15:05;100620.44;;;11.27;98.83
26719;BME280;14326;50.794;6.060;2024-01-30T05:17:32;100620.44;;;11.27;98.83
26719;BME280;14326;50.794;6.060;2024-01-30T05:19:59;100620.44;;;11.27;98.83
26719;BME280;14326;50.794;6.060;2024-01-30T05:22:26;100620.44;;;11.27;98.83
26719;BME280;14326;50.794;6.060;2024-01-30T05:24:52;57030.06;;;-142.25;71.90
26719;BME280;14326;50.794;6.060;2024-01-30T05:27:19;57030.06;;;-142.25;100.00
26719;BME280;14326;50.794;6.060;2024-01-30T05:29:47;57030.06;;;-142.25;100.00
26719;BME280;14326;50.794;6.060;2024-01-30T05:32:13;57030.06;;;-142.25;100.00
26719;BME280;14326;50.794;6.060;2024-01-30T05:34:40;57030.06;;;-142.25;100.00
26719;BME280;14326;50.794;6.060;2024-01-30T05:37:07;57030.06;;;-142.25;100.00
26719;BME280;14326;50.794;6.060;2024-01-30T05:39:33;57030.06;;;-142.25;100.00
26719;BME280;14326;50.794;6.060;2024-01-30T05:42:00;57030.06;;;-142.25;100.00
26719;BME280;14326;50.794;6.060;2024-01-30T05:44:27;57030.06;;;-142.25;100.00
26719;BME280;14326;50.794;6.060;2024-01-30T05:46:55;57030.06;;;-142.25;100.00
26719;BME280;14326;50.794;6.060;2024-01-30T05:49:22;57030.06;;;-142.25;100.00
26719;BME280;14326;50.794;6.060;2024-01-30T05:51:48;57030.06;;;-142.25;100.00
26719;BME280;14326;50.794;6.060;2024-01-30T05:54:15;57030.06;;;-142.25;100.00
26719;BME280;14326;50.794;6.060;2024-01-30T05:56:41;57030.06;;;-142.25;100.00
26719;BME280;14326;50.794;6.060;2024-01-30T05:59:08;57030.06;;;-142.25;100.00
26719;BME280;14326;50.794;6.060;2024-01-30T06:01:35;57030.06;;;-142.25;100.00
26719;BME280;14326;50.794;6.060;2024-01-30T06:04:03;57030.06;;;-142.25;100.00
26719;BME280;14326;50.794;6.060;2024-01-30T06:06:29;57030.06;;;-142.25;100.00
26719;BME280;14326;50.794;6.060;2024-01-30T06:08:56;57030.06;;;-142.25;100.00
26719;BME280;14326;50.794;6.060;2024-01-30T06:11:22;57030.06;;;-142.25;100.00
26719;BME280;14326;50.794;6.060;2024-01-30T06:13:49;57030.06;;;-142.25;100.00
26719;BME280;14326;50.794;6.060;2024-01-30T06:16:16;57030.06;;;-142.25;100.00
26719;BME280;14326;50.794;6.060;2024-01-30T06:18:42;57030.06;;;-142.25;100.00
26719;BME280;14326;50.794;6.060;2024-01-30T06:21:10;57030.06;;;-142.25;100.00
26719;BME280;14326;50.794;6.060;2024-01-30T06:23:37;57030.06;;;-142.25;100.00
26719;BME280;14326;50.794;6.060;2024-01-30T06:26:04;57030.06;;;-142.25;100.00
26719;BME280;14326;50.794;6.060;2024-01-30T06:28:31;57030.06;;;-142.25;100.00
26719;BME280;14326;50.794;6.060;2024-01-30T06:30:57;57030.06;;;-142.25;100.00
26719;BME280;14326;50.794;6.060;2024-01-30T06:33:24;57030.06;;;-142.25;100.00
26719;BME280;14326;50.794;6.060;2024-01-30T06:35:51;57030.06;;;-142.25;100.00
26719;BME280;14326;50.794;6.060;2024-01-30T06:38:18;57030.06;;;-142.25;100.00
26719;BME280;14326;50.794;6.060;2024-01-30T06:40:45;57030.06;;;-142.25;100.00
26719;BME280;14326;50.794;6.060;2024-01-30T06:43:12;57030.06;;;-142.25;100.00
26719;BME280;14326;50.794;6.060;2024-01-30T06:45:38;57030.06;;;-142.25;100.00
26719;BME280;14326;50.794;6.060;2024-01-30T06:48:07;57030.06;;;-142.25;100.00
26719;BME280;14326;50.794;6.060;2024-01-30T06:50:34;57030.06;;;-142.25;100.00
26719;BME280;14326;50.794;6.060;2024-01-30T06:53:01;57030.06;;;-142.25;100.00
26719;BME280;14326;50.794;6.060;2024-01-30T06:55:29;57030.06;;;-142.25;100.00
26719;BME280;14326;50.794;6.060;2024-01-30T06:57:55;57030.06;;;-142.25;100.00
26719;BME280;14326;50.794;6.060;2024-01-30T07:00:22;57030.06;;;-142.25;100.00
26719;BME280;14326;50.794;6.060;2024-01-30T07:02:48;57030.06;;;-142.25;100.00
26719;BME280;14326;50.794;6.060;2024-01-30T07:05:15;57030.06;;;-142.25;100.00
26719;BME280;14326;50.794;6.060;2024-01-30T07:07:42;57030.06;;;-142.25;100.00
26719;BME280;14326;50.794;6.060;2024-01-30T07:10:09;57030.06;;;-142.25;100.00
26719;BME280;14326;50.794;6.060;2024-01-30T07:12:37;57030.06;;;-142.25;100.00
26719;BME280;14326;50.794;6.060;2024-01-30T07:15:04;57030.06;;;-142.25;100.00
26719;BME280;14326;50.794;6.060;2024-01-30T07:17:33;57030.06;;;-142.25;100.00
26719;BME280;14326;50.794;6.060;2024-01-30T07:20:00;57030.06;;;-142.25;100.00
26719;BME280;14326;50.794;6.060;2024-01-30T07:22:26;57030.06;;;-142.25;100.00
26719;BME280;14326;50.794;6.060;2024-01-30T07:24:53;57030.06;;;-142.25;100.00
26719;BME280;14326;50.794;6.060;2024-01-30T07:27:19;57030.06;;;-142.25;100.00
26719;BME280;14326;50.794;6.060;2024-01-30T07:29:48;57030.06;;;-142.25;100.00
26719;BME280;14326;50.794;6.060;2024-01-30T07:32:15;57030.06;;;-142.25;100.00
26719;BME280;14326;50.794;6.060;2024-01-30T07:34:41;57030.06;;;-142.25;100.00
26719;BME280;14326;50.794;6.060;2024-01-30T07:37:08;57030.06;;;-142.25;100.00
26719;BME280;14326;50.794;6.060;2024-01-30T07:39:36;57030.06;;;-142.25;100.00
26719;BME280;14326;50.794;6.060;2024-01-30T07:42:03;57030.06;;;-142.25;100.00
26719;BME280;14326;50.794;6.060;2024-01-30T07:44:29;57030.06;;;-142.25;100.00
26719;BME280;14326;50.794;6.060;2024-01-30T07:46:57;57030.06;;;-142.25;100.00
26719;BME280;14326;50.794;6.060;2024-01-30T07:49:24;57030.06;;;-142.25;100.00
26719;BME280;14326;50.794;6.060;2024-01-30T07:51:51;57030.06;;;-142.25;100.00
26719;BME280;14326;50.794;6.060;2024-01-30T07:54:18;57030.06;;;-142.25;100.00
26719;BME280;14326;50.794;6.060;2024-01-30T07:56:44;57030.06;;;-142.25;100.00
26719;BME280;14326;50.794;6.060;2024-01-30T07:59:11;57030.06;;;-142.25;100.00
26719;BME280;14326;50.794;6.060;2024-01-30T08:01:38;57030.06;;;-142.25;100.00
26719;BME280;14326;50.794;6.060;2024-01-30T08:04:06;57030.06;;;-142.25;100.00
26719;BME280;14326;50.794;6.060;2024-01-30T08:06:32;57030.06;;;-142.25;100.00
26719;BME280;14326;50.794;6.060;2024-01-30T08:08:59;57030.06;;;-142.25;100.00
26719;BME280;14326;50.794;6.060;2024-01-30T08:11:25;57030.06;;;-142.25;100.00
26719;BME280;14326;50.794;6.060;2024-01-30T08:13:54;57030.06;;;-142.25;100.00
26719;BME280;14326;50.794;6.060;2024-01-30T08:16:20;57030.06;;;-142.25;100.00
26719;BME280;14326;50.794;6.060;2024-01-30T08:18:47;57030.06;;;-142.25;100.00
26719;BME280;14326;50.794;6.060;2024-01-30T08:21:15;57030.06;;;-142.25;100.00
26719;BME280;14326;50.794;6.060;2024-01-30T08:23:42;57030.06;;;-142.25;100.00
26719;BME280;14326;50.794;6.060;2024-01-30T08:26:08;57030.06;;;-142.25;100.00
26719;BME280;14326;50.794;6.060;2024-01-30T08:28:35;57030.06;;;-142.25;100.00
26719;BME280;14326;50.794;6.060;2024-01-30T08:31:02;57030.06;;;-142.25;100.00
26719;BME280;14326;50.794;6.060;2024-01-30T08:33:28;57030.06;;;-142.25;100.00
26719;BME280;14326;50.794;6.060;2024-01-30T08:35:55;57030.06;;;-142.25;100.00
26719;BME280;14326;50.794;6.060;2024-01-30T08:38:23;57030.06;;;-142.25;100.00
26719;BME280;14326;50.794;6.060;2024-01-30T08:40:49;57030.06;;;-142.25;100.00
26719;BME280;14326;50.794;6.060;2024-01-30T08:43:16;57030.06;;;-142.25;100.00
26719;BME280;14326;50.794;6.060;2024-01-30T08:45:43;57030.06;;;-142.25;100.00
26719;BME280;14326;50.794;6.060;2024-01-30T08:48:09;57030.06;;;-142.25;100.00
26719;BME280;14326;50.794;6.060;2024-01-30T08:50:36;57030.06;;;-142.25;100.00
26719;BME280;14326;50.794;6.060;2024-01-30T08:53:02;57030.06;;;-142.25;100.00
26719;BME280;14326;50.794;6.060;2024-01-30T08:55:31;57030.06;;;-142.25;100.00
26719;BME280;14326;50.794;6.060;2024-01-30T08:57:57;57030.06;;;-142.25;100.00
26719;BME280;14326;50.794;6.060;2024-01-30T09:00:24;57030.06;;;-142.25;100.00
26719;BME280;14326;50.794;6.060;2024-01-30T09:02:51;57030.06;;;-142.25;100.00
26719;BME280;14326;50.794;6.060;2024-01-30T09:05:17;57030.06;;;-142.25;100.00
26719;BME280;14326;50.794;6.060;2024-01-30T09:07:44;57030.06;;;-142.25;100.00
26719;BME280;14326;50.794;6.060;2024-01-30T09:10:11;57030.06;;;-142.25;100.00
26719;BME280;14326;50.794;6.060;2024-01-30T09:12:39;57030.06;;;-142.25;100.00
26719;BME280;14326;50.794;6.060;2024-01-30T09:15:06;57030.06;;;-142.25;100.00
26719;BME280;14326;50.794;6.060;2024-01-30T09:17:33;57030.06;;;-142.25;100.00
26719;BME280;14326;50.794;6.060;2024-01-30T09:19:59;57030.06;;;-142.25;100.00
26719;BME280;14326;50.794;6.060;2024-01-30T09:22:27;57030.06;;;-142.25;100.00
26719;BME280;14326;50.794;6.060;2024-01-30T09:24:54;57030.06;;;-142.25;100.00
26719;BME280;14326;50.794;6.060;2024-01-30T09:27:21;57030.06;;;-142.25;100.00
26719;BME280;14326;50.794;6.060;2024-01-30T09:29:49;57030.06;;;-142.25;100.00
26719;BME280;14326;50.794;6.060;2024-01-30T09:32:15;57030.06;;;-142.25;100.00
26719;BME280;14326;50.794;6.060;2024-01-30T09:34:43;57030.06;;;-142.25;100.00
26719;BME280;14326;50.794;6.060;2024-01-30T09:37:09;57030.06;;;-142.25;100.00
26719;BME280;14326;50.794;6.060;2024-01-30T09:39:36;57030.06;;;-142.25;100.00
26719;BME280;14326;50.794;6.060;2024-01-30T09:42:05;57030.06;;;-142.25;100.00
26719;BME280;14326;50.794;6.060;2024-01-30T09:44:37;57030.06;;;-142.25;100.00
26719;BME280;14326;50.794;6.060;2024-01-30T09:47:08;57030.06;;;-142.25;100.00
26719;BME280;14326;50.794;6.060;2024-01-30T09:49:36;57030.06;;;-142.25;100.00
26719;BME280;14326;50.794;6.060;2024-01-30T09:52:05;57030.06;;;-142.25;100.00
26719;BME280;14326;50.794;6.060;2024-01-30T09:54:32;57030.06;;;-142.25;100.00
26719;BME280;14326;50.794;6.060;2024-01-30T09:56:59;57030.06;;;-142.25;100.00
26719;BME280;14326;50.794;6.060;2024-01-30T09:59:26;57030.06;;;-142.25;100.00
26719;BME280;14326;50.794;6.060;2024-01-30T10:01:52;57030.06;;;-142.25;100.00
26719;BME280;14326;50.794;6.060;2024-01-30T10:04:20;57030.06;;;-142.25;100.00
26719;BME280;14326;50.794;6.060;2024-01-30T10:06:47;57030.06;;;-142.25;100.00
26719;BME280;14326;50.794;6.060;2024-01-30T10:09:14;57030.06;;;-142.25;100.00
26719;BME280;14326;50.794;6.060;2024-01-30T10:11:40;57030.06;;;-142.25;100.00
26719;BME280;14326;50.794;6.060;2024-01-30T10:14:07;57030.06;;;-142.25;100.00
26719;BME280;14326;50.794;6.060;2024-01-30T10:16:34;57030.06;;;-142.25;100.00
26719;BME280;14326;50.794;6.060;2024-01-30T10:19:01;57030.06;;;-142.25;100.00
26719;BME280;14326;50.794;6.060;2024-01-30T10:21:29;57030.06;;;-142.25;100.00
26719;BME280;14326;50.794;6.060;2024-01-30T10:23:56;57030.06;;;-142.25;100.00
26719;BME280;14326;50.794;6.060;2024-01-30T10:26:23;57030.06;;;-142.25;100.00
26719;BME280;14326;50.794;6.060;2024-01-30T10:28:49;57030.06;;;-142.25;100.00
26719;BME280;14326;50.794;6.060;2024-01-30T10:31:16;57030.06;;;-142.25;100.00
26719;BME280;14326;50.794;6.060;2024-01-30T10:33:44;57030.06;;;-142.25;100.00
26719;BME280;14326;50.794;6.060;2024-01-30T10:36:13;57030.06;;;-142.25;100.00
26719;BME280;14326;50.794;6.060;2024-01-30T10:38:42;57030.06;;;-142.25;100.00
26719;BME280;14326;50.794;6.060;2024-01-30T10:41:12;57030.06;;;-142.25;100.00
26719;BME280;14326;50.794;6.060;2024-01-30T10:43:44;57030.06;;;-142.25;100.00
26719;BME280;14326;50.794;6.060;2024-01-30T10:46:18;57030.06;;;-142.25;100.00
26719;BME280;14326;50.794;6.060;2024-01-30T10:48:51;57030.06;;;-142.25;100.00
26719;BME280;14326;50.794;6.060;2024-01-30T10:51:23;57030.06;;;-142.25;100.00
26719;BME280;14326;50.794;6.060;2024-01-30T10:53:52;57030.06;;;-142.25;100.00
26719;BME280;14326;50.794;6.060;2024-01-30T10:56:20;57030.06;;;-142.25;100.00
26719;BME280;14326;50.794;6.060;2024-01-30T10:58:48;57030.06;;;-142.25;100.00
26719;BME280;14326;50.794;6.060;2024-01-30T11:01:15;57030.06;;;-142.25;100.00
26719;BME280;14326;50.794;6.060;2024-01-30T11:03:43;57030.06;;;-142.25;100.00
26719;BME280;14326;50.794;6.060;2024-01-30T11:06:11;57030.06;;;-142.25;100.00
26719;BME280;14326;50.794;6.060;2024-01-30T11:08:39;57030.06;;;-142.25;100.00
26719;BME280;14326;50.794;6.060;2024-01-30T11:11:09;57030.06;;;-142.25;100.00
26719;BME280;14326;50.794;6.060;2024-01-30T11:13:36;57030.06;;;-142.25;100.00
26719;BME280;14326;50.794;6.060;2024-01-30T11:16:03;57030.06;;;-142.25;100.00
26719;BME280;14326;50.794;6.060;2024-01-30T11:18:31;57030.06;;;-142.25;100.00
26719;BME280;14326;50.794;6.060;2024-01-30T11:20:58;57030.06;;;-142.25;100.00
26719;BME280;14326;50.794;6.060;2024-01-30T11:23:27;57030.06;;;-142.25;100.00
26719;BME280;14326;50.794;6.060;2024-01-30T11:25:55;57030.06;;;-142.25;100.00
26719;BME280;14326;50.794;6.060;2024-01-30T11:28:24;57030.06;;;-142.25;100.00
26719;BME280;14326;50.794;6.060;2024-01-30T11:30:50;57030.06;;;-142.25;100.00
26719;BME280;14326;50.794;6.060;2024-01-30T11:33:27;57030.06;;;-142.25;100.00
26719;BME280;14326;50.794;6.060;2024-01-30T11:35:57;57030.06;;;-142.25;100.00
26719;BME280;14326;50.794;6.060;2024-01-30T11:38:25;57030.06;;;-142.25;100.00
26719;BME280;14326;50.794;6.060;2024-01-30T11:40:53;57030.06;;;-142.25;100.00
26719;BME280;14326;50.794;6.060;2024-01-30T11:43:19;57030.06;;;-142.25;100.00
26719;BME280;14326;50.794;6.060;2024-01-30T11:45:48;57030.06;;;-142.25;100.00
26719;BME280;14326;50.794;6.060;2024-01-30T11:48:14;57030.06;;;-142.25;100.00
26719;BME280;14326;50.794;6.060;2024-01-30T11:50:41;57030.06;;;-142.25;100.00
26719;BME280;14326;50.794;6.060;2024-01-30T11:53:08;57030.06;;;-142.25;100.00
26719;BME280;14326;50.794;6.060;2024-01-30T11:55:35;57030.06;;;-142.25;100.00
26719;BME280;14326;50.794;6.060;2024-01-30T11:58:03;57030.06;;;-142.25;100.00
26719;BME280;14326;50.794;6.060;2024-01-30T12:00:30;57030.06;;;-142.25;100.00
26719;BME280;14326;50.794;6.060;2024-01-30T12:02:59;57030.06;;;-142.25;100.00
26719;BME280;14326;50.794;6.060;2024-01-30T12:05:27;57030.06;;;-142.25;100.00
26719;BME280;14326;50.794;6.060;2024-01-30T12:07:54;57030.06;;;-142.25;100.00
26719;BME280;14326;50.794;6.060;2024-01-30T12:10:24;57030.06;;;-142.25;100.00
26719;BME280;14326;50.794;6.060;2024-01-30T12:12:51;57030.06;;;-142.25;100.00
26719;BME280;14326;50.794;6.060;2024-01-30T12:15:18;57030.06;;;-142.25;100.00
26719;BME280;14326;50.794;6.060;2024-01-30T12:17:48;57030.06;;;-142.25;100.00
26719;BME280;14326;50.794;6.060;2024-01-30T12:20:18;57030.06;;;-142.25;100.00
26719;BME280;14326;50.794;6.060;2024-01-30T12:22:47;57030.06;;;-142.25;100.00
26719;BME280;14326;50.794;6.060;2024-01-30T12:25:15;57030.06;;;-142.25;100.00
26719;BME280;14326;50.794;6.060;2024-01-30T12:27:43;57030.06;;;-142.25;100.00
26719;BME280;14326;50.794;6.060;2024-01-30T12:30:11;57030.06;;;-142.25;100.00
26719;BME280;14326;50.794;6.060;2024-01-30T12:32:40;57030.06;;;-142.25;100.00
26719;BME280;14326;50.794;6.060;2024-01-30T12:35:07;57030.06;;;-142.25;100.00
26719;BME280;14326;50.794;6.060;2024-01-30T12:37:35;57030.06;;;-142.25;100.00
26719;BME280;14326;50.794;6.060;2024-01-30T12:40:03;57030.06;;;-142.25;100.00
26719;BME280;14326;50.794;6.060;2024-01-30T12:42:29;57030.06;;;-142.25;100.00
26719;BME280;14326;50.794;6.060;2024-01-30T12:44:57;57030.06;;;-142.25;100.00
26719;BME280;14326;50.794;6.060;2024-01-30T12:47:23;57030.06;;;-142.25;100.00
26719;BME280;14326;50.794;6.060;2024-01-30T12:49:50;57030.06;;;-142.25;100.00